createdAt,value
2019-05-29T00:00:25.368Z,18.06
2019-05-29T00:02:55.983Z,18.21
2019-05-29T00:05:26.885Z,18.21
2019-05-29T00:07:57.210Z,18.10
2019-05-29T00:10:27.494Z,17.93
2019-05-29T00:12:58.344Z,17.94
2019-05-29T00:15:29.358Z,17.92
2019-05-29T00:18:00.031Z,17.82
2019-05-29T00:20:30.390Z,17.57
2019-05-29T00:23:00.851Z,17.72
2019-05-29T00:25:31.381Z,17.84
2019-05-29T00:28:02.033Z,17.61
2019-05-29T00:30:32.389Z,17.56
2019-05-29T00:33:02.866Z,17.40
2019-05-29T00:35:33.244Z,17.61
2019-05-29T00:38:04.795Z,17.61
2019-05-29T00:40:35.354Z,17.64
2019-05-29T00:43:07.301Z,17.54
2019-05-29T00:45:37.880Z,17.37
2019-05-29T00:48:09.642Z,17.36
2019-05-29T00:50:40.292Z,17.09
2019-05-29T00:53:10.646Z,17.11
2019-05-29T00:55:41.044Z,17.19
2019-05-29T00:58:12.773Z,17.20
2019-05-29T01:00:43.398Z,17.20
2019-05-29T01:03:13.821Z,17.02
2019-05-29T01:05:44.254Z,17.14
2019-05-29T01:08:14.578Z,17.02
2019-05-29T01:10:44.873Z,17.02
2019-05-29T01:13:15.691Z,16.53
2019-05-29T01:15:46.227Z,16.50
2019-05-29T01:18:17.811Z,16.24
2019-05-29T01:20:48.163Z,16.17
2019-05-29T01:23:18.464Z,16.10
2019-05-29T01:25:49.177Z,16.10
2019-05-29T01:28:20.937Z,15.85
2019-05-29T01:30:52.083Z,15.77
2019-05-29T01:33:24.572Z,15.68
2019-05-29T01:35:55.353Z,15.48
2019-05-29T01:38:25.751Z,15.34
2019-05-29T01:40:56.543Z,15.36
2019-05-29T01:43:27.718Z,15.13
2019-05-29T01:45:58.038Z,15.13
2019-05-29T01:48:29.065Z,15.14
2019-05-29T01:51:00.438Z,15.13
2019-05-29T01:53:31.095Z,15.12
2019-05-29T01:56:01.792Z,14.96
2019-05-29T01:58:32.474Z,14.99
2019-05-29T02:01:03.079Z,14.99
2019-05-29T02:03:33.694Z,14.84
2019-05-29T02:06:04.444Z,14.86
2019-05-29T02:08:34.955Z,15.08
2019-05-29T02:11:06.698Z,15.25
2019-05-29T02:13:37.772Z,15.11
2019-05-29T02:16:08.510Z,15.05
2019-05-29T02:18:38.950Z,14.96
2019-05-29T02:21:09.307Z,15.09
2019-05-29T02:23:39.885Z,15.21
2019-05-29T02:26:10.263Z,14.84
2019-05-29T02:28:41.052Z,14.77
2019-05-29T02:31:11.827Z,14.74
2019-05-29T02:33:42.118Z,14.60
2019-05-29T02:36:12.524Z,14.57
2019-05-29T02:38:42.903Z,14.44
2019-05-29T02:41:13.257Z,14.44
2019-05-29T02:43:43.601Z,14.36
2019-05-29T02:46:14.268Z,14.31
2019-05-29T02:48:44.713Z,14.31
2019-05-29T02:51:15.260Z,14.19
2019-05-29T02:53:45.902Z,14.25
2019-05-29T02:56:16.250Z,14.37
2019-05-29T02:58:47.252Z,14.42
2019-05-29T03:01:17.885Z,14.49
2019-05-29T03:03:48.512Z,14.43
2019-05-29T03:06:18.913Z,14.34
2019-05-29T03:08:49.294Z,14.38
2019-05-29T03:11:20.093Z,14.39
2019-05-29T03:13:50.702Z,14.49
2019-05-29T03:16:21.246Z,14.48
2019-05-29T03:18:51.594Z,14.60
2019-05-29T03:21:23.978Z,14.44
2019-05-29T03:23:55.860Z,14.55
2019-05-29T03:26:27.690Z,14.42
2019-05-29T03:28:58.239Z,14.66
2019-05-29T03:31:35.148Z,14.46
2019-05-29T03:34:00.804Z,14.49
2019-05-29T03:36:38.443Z,14.51
2019-05-29T03:39:03.238Z,14.48
2019-05-29T03:41:34.879Z,14.43
2019-05-29T03:44:10.080Z,14.38
2019-05-29T03:46:44.627Z,14.35
2019-05-29T03:49:10.255Z,14.35
2019-05-29T03:51:40.654Z,14.39
2019-05-29T03:54:10.951Z,14.39
2019-05-29T03:56:41.402Z,14.32
2019-05-29T03:59:11.839Z,14.37
2019-05-29T04:01:42.631Z,14.43
2019-05-29T04:04:13.103Z,14.49
2019-05-29T04:06:47.082Z,14.73
2019-05-29T04:09:15.967Z,15.02
2019-05-29T04:11:46.595Z,15.25
2019-05-29T04:14:17.171Z,15.42
2019-05-29T04:16:59.144Z,15.55
2019-05-29T04:19:24.511Z,15.54
2019-05-29T04:21:57.777Z,15.57
2019-05-29T04:24:29.861Z,15.72
2019-05-29T04:27:03.474Z,15.89
2019-05-29T04:29:34.277Z,16.06
2019-05-29T04:32:05.126Z,16.19
2019-05-29T04:34:36.329Z,16.33
2019-05-29T04:37:07.622Z,16.47
2019-05-29T04:39:39.109Z,16.52
2019-05-29T04:42:09.589Z,16.53
2019-05-29T04:44:41.393Z,16.54
2019-05-29T04:47:12.897Z,16.67
2019-05-29T04:49:43.483Z,16.75
2019-05-29T04:52:13.928Z,16.75
2019-05-29T04:54:44.601Z,16.61
2019-05-29T04:57:15.353Z,16.61
2019-05-29T04:59:45.642Z,16.71
2019-05-29T05:02:16.377Z,16.67
2019-05-29T05:04:46.742Z,17.10
2019-05-29T05:07:17.069Z,17.10
2019-05-29T05:09:47.507Z,17.19
2019-05-29T05:12:18.331Z,17.47
2019-05-29T05:14:49.756Z,17.81
2019-05-29T05:17:26.285Z,17.81
2019-05-29T05:19:52.585Z,18.21
2019-05-29T05:22:23.060Z,18.58
2019-05-29T05:24:53.446Z,18.59
2019-05-29T05:27:24.242Z,18.59
2019-05-29T05:29:54.604Z,18.96
2019-05-29T05:32:27.020Z,19.02
2019-05-29T05:34:57.067Z,18.94
2019-05-29T05:37:28.366Z,19.31
2019-05-29T05:39:59.040Z,19.44
2019-05-29T05:42:29.338Z,19.46
2019-05-29T05:44:59.756Z,19.65
2019-05-29T05:47:44.947Z,19.65
2019-05-29T05:50:02.589Z,19.84
2019-05-29T05:52:33.751Z,20.42
2019-05-29T05:55:04.743Z,20.18
2019-05-29T05:57:35.626Z,19.68
2019-05-29T06:00:16.869Z,20.20
2019-05-29T06:02:47.541Z,20.07
2019-05-29T06:05:18.151Z,20.20
2019-05-29T06:07:48.487Z,20.21
2019-05-29T06:10:18.794Z,20.07
2019-05-29T06:12:49.097Z,20.33
2019-05-29T06:15:20.132Z,20.24
2019-05-29T06:18:10.258Z,20.62
2019-05-29T06:20:22.711Z,20.76
2019-05-29T06:22:53.458Z,20.71
2019-05-29T06:25:24.745Z,20.84
2019-05-29T06:27:55.177Z,20.61
2019-05-29T06:30:25.870Z,21.09
2019-05-29T06:32:56.330Z,21.17
2019-05-29T06:35:26.588Z,21.26
2019-05-29T06:37:57.012Z,21.33
2019-05-29T06:40:34.157Z,21.30
2019-05-29T06:43:05.395Z,21.61
2019-05-29T06:45:37.807Z,22.03
2019-05-29T06:48:09.571Z,22.23
2019-05-29T06:50:41.479Z,22.20
2019-05-29T06:53:12.364Z,22.06
2019-05-29T06:55:43.924Z,21.74
2019-05-29T06:58:15.776Z,21.38
2019-05-29T07:00:46.839Z,22.08
2019-05-29T07:03:17.345Z,21.88
2019-05-29T07:05:51.331Z,22.38
2019-05-29T07:08:35.191Z,22.33
2019-05-29T07:10:52.202Z,22.21
2019-05-29T07:13:22.918Z,22.17
2019-05-29T07:15:53.235Z,22.37
2019-05-29T07:18:23.794Z,22.90
2019-05-29T07:20:54.585Z,22.98
2019-05-29T07:23:24.884Z,22.80
2019-05-29T07:25:55.365Z,22.96
2019-05-29T07:28:26.186Z,22.88
2019-05-29T07:31:02.144Z,23.19
2019-05-29T07:33:28.475Z,21.98
2019-05-29T07:35:58.770Z,23.35
2019-05-29T07:38:29.091Z,23.36
2019-05-29T07:40:59.413Z,23.34
2019-05-29T07:43:29.887Z,23.50
2019-05-29T07:46:00.270Z,23.48
2019-05-29T07:48:30.813Z,22.96
2019-05-29T07:51:07.042Z,22.96
2019-05-29T07:53:33.816Z,23.29
2019-05-29T07:56:04.739Z,23.59
2019-05-29T07:58:35.355Z,23.76
2019-05-29T08:01:13.234Z,23.77
2019-05-29T08:03:39.233Z,24.06
2019-05-29T08:06:09.805Z,24.43
2019-05-29T08:08:41.196Z,24.21
2019-05-29T08:11:12.078Z,24.56
2019-05-29T08:13:43.591Z,25.22
2019-05-29T08:16:14.097Z,25.34
2019-05-29T08:18:46.203Z,25.33
2019-05-29T08:21:16.924Z,24.92
2019-05-29T08:23:48.925Z,25.32
2019-05-29T08:26:19.705Z,25.29
2019-05-29T08:28:51.113Z,25.33
2019-05-29T08:31:22.334Z,25.23
2019-05-29T08:33:52.728Z,25.03
2019-05-29T08:36:23.370Z,25.23
2019-05-29T08:38:53.818Z,25.49
2019-05-29T08:41:24.242Z,25.26
2019-05-29T08:43:54.554Z,25.61
2019-05-29T08:46:24.890Z,25.55
2019-05-29T08:48:55.501Z,25.70
2019-05-29T08:51:26.141Z,25.59
2019-05-29T08:53:57.082Z,26.02
2019-05-29T08:56:27.366Z,25.78
2019-05-29T08:58:57.821Z,25.88
2019-05-29T09:01:28.186Z,25.69
2019-05-29T09:03:58.505Z,25.99
2019-05-29T09:06:28.824Z,26.15
2019-05-29T09:08:59.489Z,26.07
2019-05-29T09:11:29.821Z,26.27
2019-05-29T09:14:00.140Z,26.51
2019-05-29T09:16:31.156Z,26.77
2019-05-29T09:19:01.799Z,26.54
2019-05-29T09:21:32.112Z,26.57
2019-05-29T09:24:02.873Z,27.01
2019-05-29T09:26:33.653Z,27.02
2019-05-29T09:29:04.092Z,27.17
2019-05-29T09:31:34.743Z,27.57
2019-05-29T09:34:05.154Z,27.74
2019-05-29T09:36:35.435Z,27.63
2019-05-29T09:39:08.080Z,26.51
2019-05-29T09:41:38.738Z,27.96
2019-05-29T09:44:09.117Z,28.31
2019-05-29T09:46:39.454Z,28.45
2019-05-29T09:49:10.060Z,28.46
2019-05-29T09:51:40.338Z,28.54
2019-05-29T09:54:10.839Z,28.82
2019-05-29T09:56:41.167Z,28.42
2019-05-29T09:59:11.533Z,28.03
2019-05-29T10:01:42.439Z,28.36
2019-05-29T10:04:12.728Z,28.05
2019-05-29T10:06:43.085Z,28.07
2019-05-29T10:09:13.868Z,28.16
2019-05-29T10:11:44.258Z,28.47
2019-05-29T10:14:14.663Z,28.14
2019-05-29T10:16:45.270Z,28.72
2019-05-29T10:19:15.828Z,28.34
2019-05-29T10:21:46.364Z,28.70
2019-05-29T10:24:17.026Z,28.72
2019-05-29T10:26:47.361Z,28.85
2019-05-29T10:29:18.058Z,29.19
2019-05-29T10:31:49.838Z,29.20
2019-05-29T10:34:20.397Z,29.86
2019-05-29T10:36:53.586Z,29.84
2019-05-29T10:39:23.293Z,29.99
2019-05-29T10:41:53.694Z,30.49
2019-05-29T10:44:24.389Z,30.74
2019-05-29T10:46:56.524Z,31.42
2019-05-29T10:49:27.145Z,30.74
2019-05-29T10:52:13.687Z,30.93
2019-05-29T10:54:30.344Z,29.84
2019-05-29T10:57:00.697Z,29.93
2019-05-29T10:59:31.012Z,29.38
2019-05-29T11:02:01.333Z,28.76
2019-05-29T11:04:32.731Z,28.56
2019-05-29T11:07:03.531Z,27.89
2019-05-29T11:09:43.886Z,28.08
2019-05-29T11:12:06.619Z,28.23
2019-05-29T11:14:37.179Z,28.32
2019-05-29T11:17:07.539Z,29.08
2019-05-29T11:19:37.982Z,29.29
2019-05-29T11:22:25.328Z,29.93
2019-05-29T11:24:40.918Z,29.29
2019-05-29T11:27:11.216Z,29.10
2019-05-29T11:29:41.770Z,28.10
2019-05-29T11:32:12.499Z,28.35
2019-05-29T11:34:42.892Z,28.76
2019-05-29T11:37:13.193Z,29.37
2019-05-29T11:39:43.802Z,29.69
2019-05-29T11:42:26.791Z,29.24
2019-05-29T11:44:47.198Z,29.65
2019-05-29T11:47:17.487Z,30.37
2019-05-29T11:49:48.258Z,30.59
2019-05-29T11:52:24.872Z,31.14
2019-05-29T11:54:53.635Z,31.77
2019-05-29T11:57:23.151Z,32.26
2019-05-29T11:59:53.840Z,32.98
2019-05-29T12:02:24.365Z,32.46
2019-05-29T12:04:55.169Z,33.46
2019-05-29T12:07:25.595Z,33.76
2019-05-29T12:09:57.458Z,32.13
2019-05-29T12:12:27.851Z,31.36
2019-05-29T12:15:07.949Z,31.68
2019-05-29T12:17:30.391Z,31.36
2019-05-29T12:20:02.608Z,31.79
2019-05-29T12:22:32.916Z,32.60
2019-05-29T12:25:03.699Z,31.83
2019-05-29T12:27:34.439Z,31.39
2019-05-29T12:30:06.611Z,31.79
2019-05-29T12:32:37.034Z,30.60
2019-05-29T12:35:08.787Z,30.46
2019-05-29T12:37:39.532Z,29.62
2019-05-29T12:40:10.665Z,29.18
2019-05-29T12:42:44.743Z,29.17
2019-05-29T12:45:14.752Z,28.68
2019-05-29T12:47:45.508Z,29.37
2019-05-29T12:50:18.812Z,29.22
2019-05-29T12:52:49.365Z,29.08
2019-05-29T12:55:20.242Z,29.66
2019-05-29T12:57:50.535Z,29.18
2019-05-29T13:00:21.469Z,28.86
2019-05-29T13:02:51.836Z,28.71
2019-05-29T13:05:23.712Z,27.97
2019-05-29T13:07:54.790Z,27.71
2019-05-29T13:10:30.627Z,28.69
2019-05-29T13:13:03.863Z,28.16
2019-05-29T13:15:30.410Z,28.97
2019-05-29T13:18:05.805Z,28.25
2019-05-29T13:20:32.976Z,27.52
2019-05-29T13:23:05.389Z,27.12
2019-05-29T13:25:35.733Z,28.42
2019-05-29T13:28:06.404Z,28.77
2019-05-29T13:30:39.907Z,28.59
2019-05-29T13:33:10.246Z,29.28
2019-05-29T13:35:40.632Z,28.24
2019-05-29T13:38:11.446Z,28.50
2019-05-29T13:40:42.097Z,29.11
2019-05-29T13:43:15.382Z,29.60
2019-05-29T13:45:44.909Z,30.03
2019-05-29T13:48:15.484Z,30.53
2019-05-29T13:50:48.730Z,31.20
2019-05-29T13:53:18.308Z,31.98
2019-05-29T13:55:49.036Z,32.92
2019-05-29T13:58:19.372Z,34.05
2019-05-29T14:00:49.899Z,34.39
2019-05-29T14:03:20.553Z,33.04
2019-05-29T14:05:51.018Z,33.79
2019-05-29T14:08:21.576Z,33.96
2019-05-29T14:10:52.375Z,34.05
2019-05-29T14:13:23.053Z,33.88
2019-05-29T14:15:53.713Z,33.30
2019-05-29T14:18:24.222Z,33.16
2019-05-29T14:20:54.844Z,33.57
2019-05-29T14:23:25.612Z,33.54
2019-05-29T14:25:55.980Z,34.22
2019-05-29T14:28:26.309Z,34.37
2019-05-29T14:30:56.936Z,34.95
2019-05-29T14:33:27.227Z,35.02
2019-05-29T14:35:57.509Z,35.45
2019-05-29T14:38:28.169Z,36.23
2019-05-29T14:40:58.664Z,35.97
2019-05-29T14:43:29.395Z,35.99
2019-05-29T14:45:59.676Z,36.85
2019-05-29T14:48:30.038Z,37.65
2019-05-29T14:51:03.182Z,37.56
2019-05-29T14:53:32.904Z,36.98
2019-05-29T14:56:04.381Z,37.52
2019-05-29T14:58:35.260Z,36.88
2019-05-29T15:01:05.642Z,36.29
2019-05-29T15:03:35.920Z,36.89
2019-05-29T15:06:07.634Z,36.97
2019-05-29T15:08:38.272Z,35.80
2019-05-29T15:11:10.082Z,34.69
2019-05-29T15:13:41.047Z,34.04
2019-05-29T15:16:12.774Z,32.56
2019-05-29T15:18:43.618Z,32.38
2019-05-29T15:21:15.246Z,31.66
2019-05-29T15:23:46.762Z,31.01
2019-05-29T15:26:17.535Z,31.29
2019-05-29T15:28:47.972Z,29.48
2019-05-29T15:31:18.254Z,28.55
2019-05-29T15:33:48.715Z,27.53
2019-05-29T15:36:19.387Z,27.22
2019-05-29T15:38:49.842Z,28.32
2019-05-29T15:41:20.397Z,27.49
2019-05-29T15:43:51.274Z,27.92
2019-05-29T15:46:21.586Z,27.35
2019-05-29T15:48:52.267Z,27.15
2019-05-29T15:51:22.675Z,27.33
2019-05-29T15:53:53.217Z,26.53
2019-05-29T15:56:27.893Z,26.71
2019-05-29T15:58:56.067Z,26.19
2019-05-29T16:01:26.376Z,25.48
2019-05-29T16:03:57.088Z,25.52
2019-05-29T16:06:27.406Z,24.97
2019-05-29T16:08:57.762Z,23.88
2019-05-29T16:11:29.494Z,24.25
2019-05-29T16:13:59.815Z,24.55
2019-05-29T16:16:30.093Z,24.20
2019-05-29T16:19:00.818Z,24.87
2019-05-29T16:21:31.392Z,24.41
2019-05-29T16:24:02.020Z,25.21
2019-05-29T16:26:32.287Z,25.46
2019-05-29T16:29:02.734Z,25.25
2019-05-29T16:31:33.425Z,25.60
2019-05-29T16:34:03.843Z,26.08
2019-05-29T16:36:34.314Z,26.23
2019-05-29T16:39:06.749Z,26.57
2019-05-29T16:41:37.284Z,26.50
2019-05-29T16:44:07.665Z,26.86
2019-05-29T16:46:38.429Z,26.67
2019-05-29T16:49:09.164Z,26.73
2019-05-29T16:51:41.980Z,27.10
2019-05-29T16:54:12.878Z,27.01
2019-05-29T16:56:44.443Z,27.03
2019-05-29T16:59:14.969Z,27.29
2019-05-29T17:01:45.336Z,26.79
2019-05-29T17:04:15.640Z,26.16
2019-05-29T17:06:46.330Z,26.38
2019-05-29T17:09:18.305Z,26.26
2019-05-29T17:11:48.709Z,25.35
2019-05-29T17:14:20.786Z,25.23
2019-05-29T17:16:51.698Z,25.42
2019-05-29T17:19:23.062Z,25.11
2019-05-29T17:21:53.899Z,24.74
2019-05-29T17:24:25.077Z,25.01
2019-05-29T17:26:55.959Z,25.04
2019-05-29T17:29:26.300Z,25.00
2019-05-29T17:31:56.699Z,25.24
2019-05-29T17:34:28.342Z,24.23
2019-05-29T17:36:59.034Z,23.83
2019-05-29T17:39:29.305Z,24.22
2019-05-29T17:41:59.882Z,24.15
2019-05-29T17:44:30.448Z,23.91
2019-05-29T17:47:00.773Z,23.25
2019-05-29T17:49:34.577Z,23.02
2019-05-29T17:52:03.412Z,23.00
2019-05-29T17:54:33.862Z,23.12
2019-05-29T17:57:04.186Z,23.33
2019-05-29T17:59:34.967Z,22.75
2019-05-29T18:02:05.709Z,22.48
2019-05-29T18:04:36.038Z,22.10
2019-05-29T18:07:06.791Z,22.13
2019-05-29T18:09:37.439Z,21.90
2019-05-29T18:12:07.751Z,21.85
2019-05-29T18:14:38.408Z,21.73
2019-05-29T18:17:09.139Z,21.73
2019-05-29T18:19:39.495Z,21.60
2019-05-29T18:22:09.985Z,21.42
2019-05-29T18:24:40.659Z,21.72
2019-05-29T18:27:11.006Z,21.87
2019-05-29T18:29:41.387Z,21.78
2019-05-29T18:32:11.704Z,21.55
2019-05-29T18:34:42.413Z,21.25
2019-05-29T18:37:14.148Z,21.05
2019-05-29T18:39:44.498Z,20.83
2019-05-29T18:42:15.231Z,20.81
2019-05-29T18:44:45.932Z,21.14
2019-05-29T18:47:16.216Z,20.80
2019-05-29T18:49:46.786Z,20.88
2019-05-29T18:52:17.492Z,20.58
2019-05-29T18:54:47.882Z,20.71
2019-05-29T18:57:18.239Z,20.72
2019-05-29T18:59:48.532Z,20.68
2019-05-29T19:02:19.303Z,20.56
2019-05-29T19:04:49.819Z,20.51
2019-05-29T19:07:21.425Z,20.52
2019-05-29T19:09:52.072Z,20.57
2019-05-29T19:12:23.699Z,20.42
2019-05-29T19:14:54.074Z,20.40
2019-05-29T19:17:25.901Z,20.27
2019-05-29T19:19:56.819Z,20.23
2019-05-29T19:22:28.382Z,20.21
2019-05-29T19:24:58.680Z,19.97
2019-05-29T19:27:38.930Z,20.07
2019-05-29T19:30:01.156Z,20.21
2019-05-29T19:32:34.028Z,19.91
2019-05-29T19:35:05.883Z,20.18
2019-05-29T19:37:36.431Z,20.17
2019-05-29T19:40:07.827Z,20.12
2019-05-29T19:42:38.108Z,20.01
2019-05-29T19:45:09.128Z,20.08
2019-05-29T19:47:40.007Z,19.74
2019-05-29T19:50:12.112Z,19.69
2019-05-29T19:52:42.500Z,19.72
2019-05-29T19:55:13.129Z,19.76
2019-05-29T19:57:55.565Z,19.74
2019-05-29T20:00:16.159Z,19.97
2019-05-29T20:02:47.029Z,19.42
2019-05-29T20:05:17.427Z,19.84
2019-05-29T20:07:48.018Z,20.12
2019-05-29T20:10:19.814Z,19.71
2019-05-29T20:12:50.250Z,19.48
2019-05-29T20:15:21.009Z,19.42
2019-05-29T20:17:51.496Z,19.49
2019-05-29T20:20:22.014Z,19.32
2019-05-29T20:22:52.438Z,19.17
2019-05-29T20:25:22.852Z,18.78
2019-05-29T20:28:05.521Z,19.03
2019-05-29T20:30:25.574Z,18.90
2019-05-29T20:32:56.217Z,19.01
2019-05-29T20:35:26.582Z,18.80
2019-05-29T20:37:57.395Z,19.01
2019-05-29T20:40:27.815Z,18.70
2019-05-29T20:42:58.469Z,18.82
2019-05-29T20:45:29.109Z,18.48
2019-05-29T20:47:59.574Z,18.38
2019-05-29T20:50:30.932Z,18.28
2019-05-29T20:53:01.774Z,18.41
2019-05-29T20:55:32.118Z,18.72
2019-05-29T20:58:02.387Z,18.66
2019-05-29T21:00:33.933Z,18.52
2019-05-29T21:03:04.326Z,18.70
2019-05-29T21:05:34.658Z,18.52
2019-05-29T21:08:05.437Z,18.50
2019-05-29T21:10:37.089Z,18.61
2019-05-29T21:13:08.111Z,18.59
2019-05-29T21:15:39.647Z,18.54
2019-05-29T21:18:10.135Z,18.73
2019-05-29T21:20:40.769Z,18.75
2019-05-29T21:23:11.046Z,18.82
2019-05-29T21:25:41.355Z,18.44
2019-05-29T21:28:12.024Z,18.47
2019-05-29T21:30:43.718Z,18.55
2019-05-29T21:33:14.120Z,18.49
2019-05-29T21:35:44.915Z,18.44
2019-05-29T21:38:15.667Z,18.62
2019-05-29T21:40:46.728Z,18.59
2019-05-29T21:43:17.159Z,18.62
2019-05-29T21:45:47.564Z,18.45
2019-05-29T21:48:18.336Z,18.32
2019-05-29T21:50:48.645Z,18.54
2019-05-29T21:53:18.965Z,18.28
2019-05-29T21:55:49.387Z,18.36
2019-05-29T21:58:20.163Z,18.37
2019-05-29T22:00:51.578Z,18.33
2019-05-29T22:03:24.119Z,18.48
2019-05-29T22:05:55.005Z,18.33
2019-05-29T22:08:25.368Z,18.49
2019-05-29T22:10:55.869Z,18.39
2019-05-29T22:13:26.562Z,18.46
2019-05-29T22:15:56.937Z,18.48
2019-05-29T22:18:27.566Z,18.27
2019-05-29T22:20:58.775Z,18.15
2019-05-29T22:23:30.273Z,18.14
2019-05-29T22:26:01.534Z,18.12
2019-05-29T22:28:32.207Z,18.18
2019-05-29T22:31:02.675Z,18.08
2019-05-29T22:33:33.000Z,17.96
2019-05-29T22:36:03.724Z,18.00
2019-05-29T22:38:34.393Z,18.16
2019-05-29T22:41:04.882Z,18.17
2019-05-29T22:43:35.776Z,18.16
2019-05-29T22:46:06.150Z,18.14
2019-05-29T22:48:36.646Z,18.01
2019-05-29T22:51:07.100Z,18.11
2019-05-29T22:53:37.473Z,18.02
2019-05-29T22:56:07.901Z,18.13
2019-05-29T22:58:38.452Z,18.15
2019-05-29T23:01:08.765Z,18.10
2019-05-29T23:03:39.529Z,18.04
2019-05-29T23:06:10.025Z,18.11
2019-05-29T23:08:40.409Z,18.15
2019-05-29T23:11:10.845Z,18.28
2019-05-29T23:13:41.683Z,18.22
2019-05-29T23:16:12.090Z,18.23
2019-05-29T23:18:42.701Z,18.17
2019-05-29T23:21:13.056Z,18.09
2019-05-29T23:23:43.747Z,18.20
2019-05-29T23:26:15.536Z,18.02
2019-05-29T23:28:45.818Z,18.11
2019-05-29T23:31:16.438Z,18.26
2019-05-29T23:33:47.146Z,18.27
2019-05-29T23:36:17.497Z,18.17
2019-05-29T23:38:47.876Z,18.20
2019-05-29T23:41:18.473Z,18.07
2019-05-29T23:43:48.782Z,18.15
2019-05-29T23:46:19.148Z,18.24
2019-05-29T23:48:49.811Z,18.07
2019-05-29T23:51:20.139Z,18.07
2019-05-29T23:53:50.552Z,18.00
2019-05-29T23:56:20.895Z,18.02
2019-05-29T23:58:51.260Z,18.05
